createdAt,value
2023-03-27T00:00:37.853Z,58.92
2023-03-27T00:03:27.984Z,60.15
2023-03-27T00:06:16.444Z,62.54
2023-03-27T00:09:04.537Z,64.09
2023-03-27T00:11:51.766Z,64.38
2023-03-27T00:14:38.025Z,61.86
2023-03-27T00:17:24.803Z,58.11
2023-03-27T00:20:11.158Z,56.97
2023-03-27T00:22:57.906Z,58.07
2023-03-27T00:25:45.850Z,60.17
2023-03-27T00:28:32.389Z,61.59
2023-03-27T00:31:18.980Z,64.16
2023-03-27T00:34:06.015Z,65.60
2023-03-27T00:36:53.229Z,63.99
2023-03-27T00:39:41.288Z,61.32
2023-03-27T00:42:28.008Z,57.50
2023-03-27T00:45:19.365Z,56.54
2023-03-27T00:48:08.263Z,58.42
2023-03-27T00:50:56.915Z,60.49
2023-03-27T00:53:45.475Z,61.62
2023-03-27T00:56:33.268Z,64.10
2023-03-27T00:59:22.902Z,65.09
2023-03-27T01:02:10.639Z,63.38
2023-03-27T01:04:58.236Z,61.43
2023-03-27T01:08:00.637Z,61.22
2023-03-27T01:11:19.614Z,58.66
2023-03-27T01:14:43.436Z,58.48
2023-03-27T01:18:06.484Z,59.33
2023-03-27T01:21:14.020Z,62.47
2023-03-27T01:24:44.896Z,62.97
2023-03-27T01:27:58.023Z,63.28
2023-03-27T01:31:16.928Z,59.34
2023-03-27T01:34:14.350Z,58.84
2023-03-27T01:37:31.621Z,59.96
2023-03-27T01:40:32.088Z,60.86
2023-03-27T01:43:36.263Z,64.43
2023-03-27T01:46:41.142Z,66.88
2023-03-27T01:49:39.327Z,65.52
2023-03-27T01:52:32.986Z,64.70
2023-03-27T01:55:25.401Z,63.19
2023-03-27T01:58:28.746Z,62.64
2023-03-27T02:01:21.788Z,60.88
2023-03-27T02:04:23.562Z,61.82
2023-03-27T02:07:18.147Z,61.12
2023-03-27T02:10:14.789Z,59.23
2023-03-27T02:13:09.138Z,56.08
2023-03-27T02:15:59.476Z,57.76
2023-03-27T02:19:01.173Z,59.80
2023-03-27T02:21:47.818Z,63.26
2023-03-27T02:24:34.829Z,65.48
2023-03-27T02:27:42.935Z,65.84
2023-03-27T02:31:06.215Z,62.85
2023-03-27T02:34:31.416Z,63.54
2023-03-27T02:37:54.770Z,61.62
2023-03-27T02:41:13.712Z,60.73
2023-03-27T02:44:11.336Z,59.81
2023-03-27T02:47:39.229Z,58.12
2023-03-27T02:50:33.759Z,57.34
2023-03-27T02:53:29.897Z,59.32
2023-03-27T02:56:21.755Z,60.56
2023-03-27T02:59:38.882Z,64.19
2023-03-27T03:02:32.396Z,65.86
2023-03-27T03:05:22.566Z,65.13
2023-03-27T03:08:09.682Z,63.73
2023-03-27T03:11:04.135Z,65.20
2023-03-27T03:13:50.575Z,63.87
2023-03-27T03:16:37.191Z,63.17
2023-03-27T03:19:26.002Z,62.64
2023-03-27T03:22:15.351Z,61.56
2023-03-27T03:25:01.983Z,60.39
2023-03-27T03:27:48.745Z,60.50
2023-03-27T03:30:41.385Z,60.59
2023-03-27T03:33:30.396Z,59.78
2023-03-27T03:36:17.070Z,56.38
2023-03-27T03:39:05.177Z,55.78
2023-03-27T03:41:52.412Z,58.06
2023-03-27T03:44:39.202Z,60.70
2023-03-27T03:47:38.865Z,63.91
2023-03-27T03:50:25.699Z,65.96
2023-03-27T03:53:13.923Z,65.40
2023-03-27T03:56:00.929Z,65.36
2023-03-27T03:58:47.737Z,64.28
2023-03-27T04:01:35.051Z,62.84
2023-03-27T04:04:23.163Z,61.29
2023-03-27T04:07:30.991Z,60.81
2023-03-27T04:10:31.514Z,59.79
2023-03-27T04:13:19.365Z,57.30
2023-03-27T04:16:20.703Z,56.38
2023-03-27T04:19:10.033Z,57.93
2023-03-27T04:22:01.522Z,60.30
2023-03-27T04:24:51.114Z,63.20
2023-03-27T04:27:38.586Z,67.72
2023-03-27T04:30:36.321Z,66.44
2023-03-27T04:33:45.828Z,65.37
2023-03-27T04:37:01.829Z,63.67
2023-03-27T04:39:49.216Z,61.23
2023-03-27T04:42:43.519Z,60.05
2023-03-27T04:45:31.768Z,56.91
2023-03-27T04:48:18.632Z,56.40
2023-03-27T04:51:08.825Z,58.72
2023-03-27T04:53:55.976Z,59.82
2023-03-27T04:56:45.032Z,60.96
2023-03-27T04:59:31.501Z,64.79
2023-03-27T05:02:36.391Z,67.74
2023-03-27T05:05:30.745Z,67.27
2023-03-27T05:08:18.427Z,65.14
2023-03-27T05:11:04.831Z,63.70
2023-03-27T05:14:00.636Z,62.12
2023-03-27T05:16:51.843Z,61.45
2023-03-27T05:19:38.697Z,60.13
2023-03-27T05:22:26.932Z,56.54
2023-03-27T05:25:21.991Z,56.20
2023-03-27T05:28:08.836Z,58.00
2023-03-27T05:30:56.637Z,60.35
2023-03-27T05:33:44.329Z,63.13
2023-03-27T05:36:31.546Z,64.85
2023-03-27T05:39:19.643Z,64.70
2023-03-27T05:42:07.080Z,63.90
2023-03-27T05:44:55.608Z,62.16
2023-03-27T05:47:53.580Z,61.13
2023-03-27T05:50:41.580Z,60.31
2023-03-27T05:53:38.834Z,57.48
2023-03-27T05:56:37.429Z,56.59
2023-03-27T05:59:24.415Z,58.48
2023-03-27T06:02:19.196Z,59.42
2023-03-27T06:05:13.798Z,60.95
2023-03-27T06:08:01.785Z,64.28
2023-03-27T06:10:48.598Z,67.05
2023-03-27T06:13:42.798Z,66.49
2023-03-27T06:16:31.289Z,64.81
2023-03-27T06:19:32.837Z,62.08
2023-03-27T06:22:19.717Z,60.97
2023-03-27T06:25:08.417Z,59.67
2023-03-27T06:27:55.296Z,57.13
2023-03-27T06:30:42.383Z,57.04
2023-03-27T06:33:46.434Z,57.20
2023-03-27T06:37:04.713Z,58.89
2023-03-27T06:39:57.063Z,62.56
2023-03-27T06:43:05.318Z,65.89
2023-03-27T06:45:57.586Z,64.77
2023-03-27T06:49:03.370Z,63.14
2023-03-27T06:51:50.339Z,61.80
2023-03-27T06:54:39.943Z,61.11
2023-03-27T06:57:26.793Z,60.26
2023-03-27T07:00:23.871Z,57.77
2023-03-27T07:03:33.770Z,57.50
2023-03-27T07:06:50.038Z,61.22
2023-03-27T07:09:39.707Z,64.06
2023-03-27T07:12:27.526Z,63.83
2023-03-27T07:15:15.745Z,61.51
2023-03-27T07:18:05.947Z,58.38
2023-03-27T07:20:52.880Z,59.50
2023-03-27T07:23:41.816Z,61.84
2023-03-27T07:26:32.837Z,64.15
2023-03-27T07:29:21.133Z,63.05
2023-03-27T07:32:12.241Z,60.96
2023-03-27T07:35:06.127Z,58.26
2023-03-27T07:38:11.744Z,58.72
2023-03-27T07:41:06.130Z,62.51
2023-03-27T07:44:19.531Z,63.41
2023-03-27T07:47:15.067Z,61.66
2023-03-27T07:50:02.513Z,60.74
2023-03-27T07:52:49.848Z,58.41
2023-03-27T07:55:37.205Z,58.82
2023-03-27T07:58:27.401Z,60.46
2023-03-27T08:01:14.837Z,62.84
2023-03-27T08:04:03.267Z,63.23
2023-03-27T08:06:51.141Z,61.18
2023-03-27T08:09:39.735Z,60.65
2023-03-27T08:12:26.425Z,58.70
2023-03-27T08:15:18.170Z,58.64
2023-03-27T08:18:06.268Z,61.21
2023-03-27T08:20:59.460Z,63.60
2023-03-27T08:23:47.040Z,64.76
2023-03-27T08:26:51.717Z,62.18
2023-03-27T08:29:39.537Z,61.07
2023-03-27T08:32:27.305Z,60.09
2023-03-27T08:35:14.064Z,58.40
2023-03-27T08:38:00.745Z,57.84
2023-03-27T08:41:17.173Z,58.33
2023-03-27T08:44:17.955Z,60.61
2023-03-27T08:47:18.658Z,63.00
2023-03-27T08:50:35.684Z,62.00
2023-03-27T08:54:03.120Z,58.94
2023-03-27T08:56:50.935Z,58.07
2023-03-27T08:59:38.262Z,63.28
2023-03-27T09:02:50.900Z,61.33
2023-03-27T09:06:07.998Z,57.08
2023-03-27T09:09:23.249Z,55.98
2023-03-27T09:13:11.443Z,53.36
2023-03-27T09:16:25.637Z,57.36
2023-03-27T09:19:21.027Z,61.36
2023-03-27T09:22:22.837Z,59.87
2023-03-27T09:25:52.945Z,53.57
2023-03-27T09:29:00.995Z,50.40
2023-03-27T09:31:56.925Z,47.81
2023-03-27T09:34:45.475Z,46.76
2023-03-27T09:37:37.203Z,46.14
2023-03-27T09:40:52.673Z,45.71
2023-03-27T09:43:53.304Z,46.35
2023-03-27T09:46:47.357Z,47.94
2023-03-27T09:49:35.306Z,49.44
2023-03-27T09:52:37.721Z,51.15
2023-03-27T09:55:55.078Z,52.47
2023-03-27T09:58:48.430Z,51.81
2023-03-27T10:01:35.483Z,52.27
2023-03-27T10:04:28.594Z,52.12
2023-03-27T10:07:26.263Z,50.55
2023-03-27T10:10:37.237Z,45.13
2023-03-27T10:13:28.848Z,40.91
2023-03-27T10:16:19.752Z,41.29
2023-03-27T10:19:30.220Z,42.27
2023-03-27T10:22:35.957Z,43.85
2023-03-27T10:25:33.640Z,45.79
2023-03-27T10:28:46.140Z,47.37
2023-03-27T10:31:49.317Z,48.86
2023-03-27T10:34:57.654Z,50.25
2023-03-27T10:38:15.006Z,50.93
2023-03-27T10:41:37.559Z,51.24
2023-03-27T10:44:27.766Z,50.94
2023-03-27T10:47:25.738Z,49.34
2023-03-27T10:50:33.126Z,45.75
2023-03-27T10:53:42.958Z,45.23
2023-03-27T10:56:52.588Z,46.11
2023-03-27T11:00:06.755Z,45.66
2023-03-27T11:03:22.456Z,46.69
2023-03-27T11:06:18.291Z,48.74
2023-03-27T11:09:18.589Z,50.23
2023-03-27T11:12:18.933Z,51.62
2023-03-27T11:15:41.730Z,52.50
2023-03-27T11:19:10.702Z,53.78
2023-03-27T11:22:28.284Z,54.33
2023-03-27T11:25:51.268Z,54.09
2023-03-27T11:28:49.102Z,54.09
2023-03-27T11:31:48.769Z,54.04
2023-03-27T11:35:04.203Z,54.20
2023-03-27T11:38:20.996Z,54.30
2023-03-27T11:41:14.644Z,53.86
2023-03-27T11:44:01.967Z,53.20
2023-03-27T11:48:12.340Z,53.63
2023-03-27T11:51:21.940Z,53.63
2023-03-27T11:54:29.993Z,52.69
2023-03-27T11:57:26.463Z,52.34
2023-03-27T12:00:31.299Z,52.25
2023-03-27T12:04:13.618Z,51.68
2023-03-27T12:07:36.146Z,51.43
2023-03-27T12:10:38.210Z,52.61
2023-03-27T12:14:40.424Z,51.79
2023-03-27T12:17:57.583Z,50.03
2023-03-27T12:21:19.807Z,48.89
2023-03-27T12:24:59.632Z,48.35
2023-03-27T12:28:22.768Z,49.15
2023-03-27T12:31:59.774Z,49.16
2023-03-27T12:34:56.639Z,49.60
2023-03-27T12:37:58.230Z,49.13
2023-03-27T12:41:00.333Z,49.38
2023-03-27T12:43:54.660Z,49.90
2023-03-27T12:47:22.171Z,50.09
2023-03-27T12:50:25.792Z,49.66
2023-03-27T12:53:32.784Z,49.08
2023-03-27T12:56:33.771Z,48.84
2023-03-27T12:59:27.587Z,49.16
2023-03-27T13:02:15.438Z,48.60
2023-03-27T13:05:32.079Z,48.95
2023-03-27T13:08:44.561Z,49.66
2023-03-27T13:12:36.098Z,49.99
2023-03-27T13:15:36.555Z,50.18
2023-03-27T13:19:06.693Z,50.21
2023-03-27T13:22:18.275Z,50.48
2023-03-27T13:25:45.368Z,49.55
2023-03-27T13:28:41.738Z,49.08
2023-03-27T13:31:46.078Z,48.86
2023-03-27T13:35:23.510Z,48.08
2023-03-27T13:38:12.942Z,47.77
2023-03-27T13:41:44.268Z,48.10
2023-03-27T13:45:14.758Z,47.67
2023-03-27T13:48:13.346Z,47.30
2023-03-27T13:51:34.277Z,47.07
2023-03-27T13:54:39.812Z,45.91
2023-03-27T13:57:55.875Z,45.09
2023-03-27T14:01:08.916Z,45.11
2023-03-27T14:04:35.200Z,44.94
2023-03-27T14:07:51.930Z,44.64
2023-03-27T14:11:03.920Z,45.34
2023-03-27T14:14:32.001Z,45.80
2023-03-27T14:17:21.925Z,46.09
2023-03-27T14:20:18.501Z,45.81
2023-03-27T14:23:14.564Z,46.44
2023-03-27T14:26:29.111Z,46.41
2023-03-27T14:29:16.370Z,46.04
2023-03-27T14:32:15.307Z,45.32
2023-03-27T14:35:24.799Z,44.97
2023-03-27T14:38:30.897Z,44.76
2023-03-27T14:41:21.635Z,45.21
2023-03-27T14:44:19.137Z,45.48
2023-03-27T14:47:13.163Z,45.71
2023-03-27T14:50:01.241Z,46.06
2023-03-27T14:52:59.611Z,46.38
2023-03-27T14:55:52.370Z,46.94
2023-03-27T14:59:28.259Z,47.57
2023-03-27T15:02:31.248Z,48.02
2023-03-27T15:05:22.061Z,48.43
2023-03-27T15:08:12.374Z,48.41
2023-03-27T15:11:32.827Z,48.61
2023-03-27T15:14:29.825Z,49.03
2023-03-27T15:17:19.680Z,49.45
2023-03-27T15:20:10.476Z,49.93
2023-03-27T15:23:11.979Z,50.18
2023-03-27T15:26:08.922Z,50.42
2023-03-27T15:29:03.565Z,50.58
2023-03-27T15:31:51.718Z,50.68
2023-03-27T15:34:47.817Z,50.67
2023-03-27T15:37:34.702Z,50.59
2023-03-27T15:40:31.190Z,50.38
2023-03-27T15:43:24.315Z,50.45
2023-03-27T15:46:20.934Z,49.65
2023-03-27T15:49:31.973Z,48.50
2023-03-27T15:52:32.325Z,48.88
2023-03-27T15:55:37.377Z,48.90
2023-03-27T15:58:28.400Z,49.02
2023-03-27T16:01:38.348Z,48.84
2023-03-27T16:04:45.556Z,48.78
2023-03-27T16:07:45.509Z,48.50
2023-03-27T16:10:33.371Z,48.71
2023-03-27T16:13:34.734Z,48.87
2023-03-27T16:16:38.128Z,49.01
2023-03-27T16:19:24.805Z,48.54
2023-03-27T16:22:12.667Z,48.32
2023-03-27T16:25:00.988Z,48.24
2023-03-27T16:27:54.083Z,48.22
2023-03-27T16:30:41.442Z,48.39
2023-03-27T16:33:28.934Z,48.36
2023-03-27T16:36:20.128Z,48.58
2023-03-27T16:39:08.685Z,48.86
2023-03-27T16:41:55.813Z,49.15
2023-03-27T16:44:44.468Z,49.34
2023-03-27T16:47:31.508Z,49.65
2023-03-27T16:50:22.904Z,49.91
2023-03-27T16:53:13.443Z,50.19
2023-03-27T16:56:00.473Z,50.38
2023-03-27T16:58:48.570Z,50.56
2023-03-27T17:01:35.410Z,50.78
2023-03-27T17:04:22.821Z,50.76
2023-03-27T17:07:10.093Z,51.08
2023-03-27T17:09:56.910Z,51.08
2023-03-27T17:12:44.140Z,51.57
2023-03-27T17:15:35.562Z,51.65
2023-03-27T17:18:25.405Z,51.71
2023-03-27T17:21:11.814Z,51.98
2023-03-27T17:24:01.520Z,52.59
2023-03-27T17:26:48.264Z,52.87
2023-03-27T17:29:34.574Z,52.77
2023-03-27T17:32:21.122Z,53.12
2023-03-27T17:35:08.717Z,53.28
2023-03-27T17:37:56.392Z,53.27
2023-03-27T17:40:43.041Z,53.82
2023-03-27T17:43:29.926Z,54.14
2023-03-27T17:46:16.178Z,54.17
2023-03-27T17:49:03.169Z,54.14
2023-03-27T17:51:50.088Z,54.54
2023-03-27T17:54:37.240Z,54.95
2023-03-27T17:57:23.818Z,55.02
2023-03-27T18:00:11.100Z,55.15
2023-03-27T18:03:03.179Z,55.63
2023-03-27T18:05:51.612Z,55.94
2023-03-27T18:08:38.663Z,55.90
2023-03-27T18:11:25.456Z,55.81
2023-03-27T18:14:12.731Z,56.40
2023-03-27T18:16:59.435Z,56.36
2023-03-27T18:19:49.702Z,56.66
2023-03-27T18:22:38.493Z,56.73
2023-03-27T18:25:25.197Z,57.02
2023-03-27T18:28:12.650Z,57.02
2023-03-27T18:31:07.705Z,57.33
2023-03-27T18:33:54.678Z,56.89
2023-03-27T18:36:41.961Z,57.62
2023-03-27T18:39:28.504Z,57.58
2023-03-27T18:42:15.041Z,57.61
2023-03-27T18:45:02.484Z,57.70
2023-03-27T18:47:49.175Z,58.13
2023-03-27T18:50:35.778Z,57.84
2023-03-27T18:53:23.135Z,57.97
2023-03-27T18:56:09.866Z,58.12
2023-03-27T18:58:56.512Z,57.97
2023-03-27T19:01:43.558Z,58.40
2023-03-27T19:04:31.159Z,59.16
2023-03-27T19:07:21.549Z,59.86
2023-03-27T19:10:09.864Z,60.03
2023-03-27T19:12:56.806Z,60.19
2023-03-27T19:16:02.387Z,60.86
2023-03-27T19:19:37.731Z,60.63
2023-03-27T19:22:40.854Z,60.30
2023-03-27T19:26:10.065Z,60.50
2023-03-27T19:29:00.510Z,61.01
2023-03-27T19:31:47.742Z,61.26
2023-03-27T19:34:42.319Z,61.17
2023-03-27T19:37:30.789Z,61.47
2023-03-27T19:40:19.933Z,61.52
2023-03-27T19:43:06.791Z,61.96
2023-03-27T19:46:04.390Z,61.59
2023-03-27T19:49:04.450Z,60.89
2023-03-27T19:52:20.772Z,61.06
2023-03-27T19:55:08.990Z,60.78
2023-03-27T20:01:37.151Z,60.59
2023-03-27T20:04:23.859Z,60.85
2023-03-27T20:07:10.596Z,61.27
2023-03-27T20:09:57.135Z,61.05
2023-03-27T20:12:43.955Z,61.27
2023-03-27T20:15:30.531Z,61.52
2023-03-27T20:18:19.433Z,61.41
2023-03-27T20:21:05.795Z,61.83
2023-03-27T20:23:55.181Z,61.17
2023-03-27T20:26:47.639Z,61.37
2023-03-27T20:29:36.696Z,61.47
2023-03-27T20:32:25.618Z,61.59
2023-03-27T20:35:23.561Z,61.88
2023-03-27T20:38:12.882Z,61.86
2023-03-27T20:41:10.525Z,61.91
2023-03-27T20:44:02.481Z,63.13
2023-03-27T20:46:54.547Z,64.15
2023-03-27T20:49:43.266Z,66.67
2023-03-27T20:52:30.544Z,65.01
2023-03-27T20:55:32.948Z,58.87
2023-03-27T20:58:28.472Z,53.40
2023-03-27T21:01:18.827Z,52.82
2023-03-27T21:04:06.370Z,53.70
2023-03-27T21:06:54.275Z,54.68
2023-03-27T21:09:43.607Z,56.01
2023-03-27T21:12:31.721Z,56.95
2023-03-27T21:15:18.946Z,57.79
2023-03-27T21:18:05.321Z,58.95
2023-03-27T21:20:52.597Z,59.22
2023-03-27T21:23:39.381Z,59.84
2023-03-27T21:26:25.667Z,60.70
2023-03-27T21:29:14.704Z,61.31
2023-03-27T21:32:01.146Z,61.95
2023-03-27T21:34:47.896Z,62.61
2023-03-27T21:37:34.295Z,62.46
2023-03-27T21:40:20.968Z,59.89
2023-03-27T21:43:08.448Z,58.09
2023-03-27T21:45:54.984Z,57.73
2023-03-27T21:48:44.029Z,58.70
2023-03-27T21:51:30.470Z,59.44
2023-03-27T21:54:17.106Z,60.10
2023-03-27T21:57:04.090Z,60.15
2023-03-27T21:59:50.246Z,60.92
2023-03-27T22:02:36.924Z,61.55
2023-03-27T22:05:24.034Z,61.95
2023-03-27T22:08:11.894Z,63.06
2023-03-27T22:11:01.312Z,64.37
2023-03-27T22:13:48.480Z,62.62
2023-03-27T22:16:34.874Z,56.92
2023-03-27T22:19:20.931Z,56.54
2023-03-27T22:22:07.237Z,57.38
2023-03-27T22:24:53.445Z,58.34
2023-03-27T22:27:40.605Z,59.98
2023-03-27T22:30:27.249Z,60.37
2023-03-27T22:33:16.317Z,61.00
2023-03-27T22:36:06.055Z,61.72
2023-03-27T22:38:53.806Z,63.89
2023-03-27T22:41:43.955Z,65.46
2023-03-27T22:44:32.653Z,64.67
2023-03-27T22:47:19.712Z,64.44
2023-03-27T22:50:09.535Z,58.82
2023-03-27T22:52:56.546Z,55.10
2023-03-27T22:55:51.823Z,55.34
2023-03-27T22:58:38.453Z,57.59
2023-03-27T23:01:25.959Z,59.03
2023-03-27T23:04:12.717Z,60.24
2023-03-27T23:07:01.959Z,61.22
2023-03-27T23:09:48.920Z,62.90
2023-03-27T23:12:35.820Z,62.10
2023-03-27T23:15:29.765Z,61.07
2023-03-27T23:18:21.221Z,58.39
2023-03-27T23:21:10.639Z,57.21
2023-03-27T23:23:57.437Z,58.52
2023-03-27T23:26:44.056Z,59.64
2023-03-27T23:29:31.432Z,61.02
2023-03-27T23:32:17.856Z,62.13
2023-03-27T23:35:10.325Z,64.83
2023-03-27T23:37:56.689Z,68.48
2023-03-27T23:40:43.148Z,68.90
2023-03-27T23:43:30.907Z,68.33
2023-03-27T23:46:17.363Z,65.43
2023-03-27T23:49:04.273Z,63.78
2023-03-27T23:51:50.562Z,63.39
2023-03-27T23:54:36.941Z,63.10
2023-03-27T23:57:24.954Z,54.56
